Langport, United Kingdom
Current Conditions -  °F | °C
As of 3:50 PM on Tuesday 21 Oct 2014 (Local Time) from EGDY Reporting Station
Few Clouds Few Clouds  
Wind Chill: 55°   Ceiling: Unl
Heat Index: 55°   Visibility: 6mi
Dew Point: 37°   Wind: 31mph
Humidity: 51%   Direction: 290°WNW
Pressure: 29.94"   Gusts: 46mph
Location:  51.04°N, 2.83°W
Report Text: EGDY 211450Z 29027G40KT 9999 FEW010 FEW025CB 13/03 Q1014 BLU TEMPO 4000 SHRA SCT020CB GRN
Loading
Personal Weather Stations






























Interactive Weather Map
Tropical Storm Tracking
New forecast layout! Learn more

10-Day Weather Forecast

Advertisements
Track Severe Weather on mobile